createdAt,value
2018-09-06T00:01:10.494Z,29.30
2018-09-06T00:03:38.139Z,28.23
2018-09-06T00:06:06.010Z,26.90
2018-09-06T00:08:33.685Z,26.50
2018-09-06T00:11:01.241Z,28.13
2018-09-06T00:13:28.751Z,26.00
2018-09-06T00:15:56.270Z,28.00
2018-09-06T00:18:23.825Z,27.83
2018-09-06T00:20:51.387Z,29.10
2018-09-06T00:23:18.921Z,30.00
2018-09-06T00:25:46.461Z,26.80
2018-09-06T00:28:13.989Z,25.57
2018-09-06T00:30:41.598Z,25.40
2018-09-06T00:33:09.090Z,26.47
2018-09-06T00:35:36.727Z,24.90
2018-09-06T00:38:04.355Z,24.23
2018-09-06T00:40:31.910Z,26.03
2018-09-06T00:42:59.475Z,27.93
2018-09-06T00:45:27.046Z,26.37
2018-09-06T00:47:54.575Z,27.90
2018-09-06T00:50:22.258Z,26.83
2018-09-06T00:52:50.817Z,29.10
2018-09-06T00:55:19.084Z,30.77
2018-09-06T00:57:46.648Z,29.50
2018-09-06T01:00:14.514Z,26.10
2018-09-06T01:02:42.458Z,25.00
2018-09-06T01:05:09.974Z,26.23
2018-09-06T01:07:37.508Z,26.77
2018-09-06T01:10:06.149Z,26.07
2018-09-06T01:12:33.684Z,26.33
2018-09-06T01:15:01.362Z,25.30
2018-09-06T01:17:28.890Z,24.80
2018-09-06T01:19:56.460Z,25.47
2018-09-06T01:22:24.355Z,26.63
2018-09-06T01:24:51.912Z,25.80
2018-09-06T01:27:19.482Z,25.60
2018-09-06T01:29:47.014Z,25.90
2018-09-06T01:32:14.692Z,22.20
2018-09-06T01:34:42.194Z,22.90
2018-09-06T01:37:10.269Z,22.03
2018-09-06T01:39:38.811Z,21.97
2018-09-06T01:42:07.134Z,21.50
2018-09-06T01:44:34.671Z,21.10
2018-09-06T01:47:02.246Z,23.80
2018-09-06T01:49:30.279Z,24.03
2018-09-06T01:51:57.808Z,21.70
2018-09-06T01:54:25.359Z,21.23
2018-09-06T01:56:52.925Z,21.53
2018-09-06T01:59:20.452Z,21.03
2018-09-06T02:01:47.935Z,20.73
2018-09-06T02:04:15.653Z,19.33
2018-09-06T02:06:43.221Z,20.80
2018-09-06T02:09:10.780Z,21.10
2018-09-06T02:11:39.453Z,20.00
2018-09-06T02:14:07.075Z,17.73
2018-09-06T02:16:34.979Z,19.63
2018-09-06T02:19:02.748Z,19.33
2018-09-06T02:21:30.291Z,18.57
2018-09-06T02:23:57.865Z,19.60
2018-09-06T02:26:25.459Z,19.53
2018-09-06T02:28:52.989Z,19.30
2018-09-06T02:31:20.637Z,19.60
2018-09-06T02:33:48.199Z,18.60
2018-09-06T02:36:15.661Z,18.50
2018-09-06T02:38:43.220Z,17.67
2018-09-06T02:41:10.721Z,19.93
2018-09-06T02:43:38.245Z,20.17
2018-09-06T02:46:05.787Z,20.97
2018-09-06T02:48:38.988Z,21.00
2018-09-06T02:51:12.207Z,19.27
2018-09-06T02:53:40.682Z,21.50
2018-09-06T02:56:08.524Z,21.17
2018-09-06T02:58:36.162Z,20.50
2018-09-06T03:01:03.713Z,21.23
2018-09-06T03:03:31.264Z,23.03
2018-09-06T03:05:58.800Z,22.43
2018-09-06T03:08:26.332Z,23.90
2018-09-06T03:10:57.813Z,22.37
2018-09-06T03:13:25.357Z,23.30
2018-09-06T03:15:52.875Z,24.13
2018-09-06T03:18:20.397Z,23.63
2018-09-06T03:20:47.911Z,24.03
2018-09-06T03:23:15.445Z,21.87
2018-09-06T03:25:42.989Z,21.23
2018-09-06T03:28:10.563Z,22.13
2018-09-06T03:30:38.153Z,22.83
2018-09-06T03:33:05.669Z,22.73
2018-09-06T03:35:33.177Z,24.70
2018-09-06T03:38:00.703Z,24.53
2018-09-06T03:40:28.212Z,25.70
2018-09-06T03:42:55.743Z,30.20
2018-09-06T03:45:23.266Z,27.53
2018-09-06T03:47:50.771Z,28.60
2018-09-06T03:50:18.288Z,27.13
2018-09-06T03:52:45.794Z,27.93
2018-09-06T03:55:13.700Z,27.80
2018-09-06T03:57:41.271Z,27.40
2018-09-06T04:00:09.015Z,28.90
2018-09-06T04:02:36.514Z,27.77
2018-09-06T04:05:04.070Z,28.30
2018-09-06T04:07:31.564Z,28.40
2018-09-06T04:09:59.061Z,26.20
2018-09-06T04:12:26.557Z,26.30
2018-09-06T04:14:54.082Z,27.67
2018-09-06T04:17:21.586Z,26.90
2018-09-06T04:19:49.129Z,26.93
2018-09-06T04:22:16.636Z,27.03
2018-09-06T04:24:44.144Z,27.90
2018-09-06T04:27:11.726Z,27.30
2018-09-06T04:29:39.234Z,27.63
2018-09-06T04:32:06.765Z,26.77
2018-09-06T04:34:34.276Z,27.80
2018-09-06T04:37:01.774Z,25.70
2018-09-06T04:39:29.305Z,24.93
2018-09-06T04:41:56.885Z,27.40
2018-09-06T04:44:24.360Z,25.97
2018-09-06T04:46:51.987Z,26.23
2018-09-06T04:49:19.829Z,25.93
2018-09-06T04:51:47.989Z,25.43
2018-09-06T04:54:15.516Z,23.03
2018-09-06T04:56:43.029Z,23.87
2018-09-06T04:59:10.577Z,24.80
2018-09-06T05:01:38.392Z,24.70
2018-09-06T05:04:06.167Z,24.03
2018-09-06T05:06:33.826Z,24.03
2018-09-06T05:09:01.395Z,27.70
2018-09-06T05:11:28.991Z,26.00
2018-09-06T05:13:56.525Z,27.73
2018-09-06T05:16:24.029Z,25.93
2018-09-06T05:18:51.537Z,25.60
2018-09-06T05:21:19.074Z,25.07
2018-09-06T05:23:46.598Z,27.30
2018-09-06T05:26:14.170Z,25.40
2018-09-06T05:28:41.696Z,24.33
2018-09-06T05:31:09.187Z,26.33
2018-09-06T05:33:36.727Z,28.20
2018-09-06T05:36:04.255Z,29.30
2018-09-06T05:38:31.741Z,28.50
2018-09-06T05:40:59.393Z,27.73
2018-09-06T05:43:26.894Z,26.20
2018-09-06T05:45:54.475Z,27.27
2018-09-06T05:48:21.980Z,28.30
2018-09-06T05:50:49.513Z,25.37
2018-09-06T05:53:17.050Z,27.30
2018-09-06T05:55:44.594Z,28.27
2018-09-06T05:58:12.184Z,29.27
2018-09-06T06:00:44.205Z,27.33
2018-09-06T06:03:12.078Z,31.83
2018-09-06T06:05:39.616Z,30.57
2018-09-06T06:08:18.481Z,34.40
2018-09-06T06:10:45.995Z,34.03
2018-09-06T06:13:13.565Z,33.00
2018-09-06T06:15:41.045Z,37.50
2018-09-06T06:18:08.569Z,37.90
2018-09-06T06:20:36.175Z,40.50
2018-09-06T06:23:03.727Z,43.80
2018-09-06T06:25:31.250Z,42.73
2018-09-06T06:27:58.749Z,41.90
2018-09-06T06:30:26.363Z,42.77
2018-09-06T06:32:53.965Z,39.63
2018-09-06T06:35:21.520Z,41.70
2018-09-06T06:37:49.018Z,42.57
2018-09-06T06:40:16.609Z,43.30
2018-09-06T06:42:44.129Z,40.37
2018-09-06T06:45:11.656Z,41.57
2018-09-06T06:47:39.165Z,41.60
2018-09-06T06:50:06.797Z,42.53
2018-09-06T06:52:34.315Z,41.43
2018-09-06T06:55:01.843Z,40.90
2018-09-06T06:57:29.365Z,41.67
2018-09-06T06:59:57.033Z,41.00
2018-09-06T07:02:24.527Z,40.60
2018-09-06T07:04:52.177Z,40.40
2018-09-06T07:07:19.697Z,40.33
2018-09-06T07:09:47.252Z,40.07
2018-09-06T07:12:14.840Z,42.23
2018-09-06T07:14:42.472Z,40.90
2018-09-06T07:17:10.076Z,42.47
2018-09-06T07:19:37.628Z,42.37
2018-09-06T07:22:05.210Z,43.80
2018-09-06T07:24:32.742Z,42.37
2018-09-06T07:27:00.393Z,41.40
2018-09-06T07:29:27.955Z,42.03
2018-09-06T07:31:55.714Z,40.43
2018-09-06T07:34:23.242Z,42.27
2018-09-06T07:36:50.792Z,43.83
2018-09-06T07:39:18.291Z,42.20
2018-09-06T07:41:45.887Z,39.63
2018-09-06T07:44:13.661Z,42.50
2018-09-06T07:46:41.212Z,40.97
2018-09-06T07:49:08.725Z,43.47
2018-09-06T07:51:36.326Z,41.63
2018-09-06T07:54:03.761Z,44.00
2018-09-06T07:56:31.294Z,43.70
2018-09-06T07:58:58.814Z,43.40
2018-09-06T08:01:26.389Z,44.30
2018-09-06T08:03:54.074Z,45.10
2018-09-06T08:06:21.735Z,44.60
2018-09-06T08:08:49.338Z,42.60
2018-09-06T08:11:16.932Z,42.50
2018-09-06T08:13:44.498Z,43.43
2018-09-06T08:16:12.178Z,44.43
2018-09-06T08:18:39.834Z,46.40
2018-09-06T08:21:07.406Z,43.07
2018-09-06T08:23:34.959Z,47.17
2018-09-06T08:26:02.556Z,44.30
2018-09-06T08:28:30.148Z,42.90
2018-09-06T08:30:57.788Z,44.53
2018-09-06T08:33:25.311Z,49.10
2018-09-06T08:35:52.948Z,47.13
2018-09-06T08:38:20.689Z,46.40
2018-09-06T08:40:48.213Z,42.57
2018-09-06T08:43:15.795Z,45.87
2018-09-06T08:45:43.340Z,44.83
2018-09-06T08:48:10.868Z,42.87
2018-09-06T08:50:38.452Z,44.70
2018-09-06T08:53:06.032Z,47.17
2018-09-06T08:55:33.584Z,44.07
2018-09-06T08:58:01.101Z,46.47
2018-09-06T09:00:28.829Z,45.97
2018-09-06T09:02:56.606Z,45.60
2018-09-06T09:05:24.015Z,48.03
2018-09-06T09:07:51.596Z,45.67
2018-09-06T09:10:19.157Z,49.00
2018-09-06T09:12:46.706Z,48.97
2018-09-06T09:15:14.252Z,47.40
2018-09-06T09:17:41.896Z,48.60
2018-09-06T09:20:09.413Z,48.87
2018-09-06T09:22:36.958Z,50.33
2018-09-06T09:25:04.629Z,47.17
2018-09-06T09:27:32.174Z,47.23
2018-09-06T09:29:59.680Z,50.80
2018-09-06T09:32:27.374Z,45.80
2018-09-06T09:34:54.972Z,44.57
2018-09-06T09:37:22.573Z,48.87
2018-09-06T09:39:50.190Z,48.20
2018-09-06T09:42:17.749Z,49.30
2018-09-06T09:44:45.336Z,48.03
2018-09-06T09:49:40.139Z,45.73
2018-09-06T09:52:07.616Z,47.97
2018-09-06T09:54:35.165Z,48.73
2018-09-06T09:57:02.912Z,48.63
2018-09-06T09:59:30.545Z,47.93
2018-09-06T10:04:05.663Z,45.50
2018-09-06T10:06:38.757Z,44.70
2018-09-06T10:09:11.993Z,43.80
2018-09-06T10:11:39.628Z,43.83
2018-09-06T10:14:07.190Z,44.10
2018-09-06T10:16:34.857Z,42.57
2018-09-06T10:19:02.431Z,40.43
2018-09-06T10:21:30.074Z,40.80
2018-09-06T10:23:57.662Z,38.20
2018-09-06T10:26:25.177Z,36.70
2018-09-06T10:28:52.754Z,37.73
2018-09-06T10:31:20.324Z,40.67
2018-09-06T10:33:47.878Z,36.50
2018-09-06T10:36:15.550Z,35.80
2018-09-06T10:38:43.129Z,34.77
2018-09-06T10:41:10.764Z,38.20
2018-09-06T10:43:38.327Z,35.43
2018-09-06T10:46:06.070Z,36.50
2018-09-06T10:48:33.567Z,32.90
2018-09-06T10:51:01.150Z,31.90
2018-09-06T10:53:28.727Z,35.30
2018-09-06T10:55:56.374Z,31.23
2018-09-06T10:58:23.983Z,31.13
2018-09-06T11:00:56.115Z,29.77
2018-09-06T11:03:23.776Z,29.13
2018-09-06T11:05:51.398Z,27.73
2018-09-06T11:08:19.085Z,29.47
2018-09-06T11:10:46.564Z,27.53
2018-09-06T11:13:14.162Z,25.50
2018-09-06T11:15:41.744Z,26.83
2018-09-06T11:18:09.383Z,24.53
2018-09-06T11:20:36.893Z,24.57
2018-09-06T11:23:04.415Z,23.33
2018-09-06T11:25:31.985Z,20.93
2018-09-06T11:27:59.592Z,23.40
2018-09-06T11:30:27.070Z,20.63
2018-09-06T11:32:54.603Z,19.33
2018-09-06T11:35:22.126Z,20.10
2018-09-06T11:37:49.778Z,23.37
2018-09-06T11:40:17.390Z,20.80
2018-09-06T11:42:45.028Z,19.30
2018-09-06T11:45:12.625Z,19.23
2018-09-06T11:47:40.269Z,19.60
2018-09-06T11:50:07.783Z,19.70
2018-09-06T11:52:35.411Z,19.97
2018-09-06T11:55:02.987Z,18.67
2018-09-06T11:57:30.576Z,19.00
2018-09-06T11:59:58.093Z,20.47
2018-09-06T12:02:25.663Z,21.20
2018-09-06T12:04:53.214Z,21.33
2018-09-06T12:07:20.866Z,21.07
2018-09-06T12:09:48.422Z,21.90
2018-09-06T12:12:16.127Z,18.47
2018-09-06T12:14:43.788Z,18.33
2018-09-06T12:17:11.349Z,17.27
2018-09-06T12:19:38.859Z,18.77
2018-09-06T12:22:06.370Z,17.70
2018-09-06T12:24:33.945Z,16.03
2018-09-06T12:27:01.817Z,15.10
2018-09-06T12:29:29.445Z,17.07
2018-09-06T12:31:57.062Z,18.47
2018-09-06T12:34:24.715Z,15.97
2018-09-06T12:36:52.496Z,18.97
2018-09-06T12:39:20.143Z,16.43
2018-09-06T12:41:47.886Z,16.80
2018-09-06T12:44:15.410Z,16.80
2018-09-06T12:46:43.034Z,15.43
2018-09-06T12:49:10.625Z,16.37
2018-09-06T12:51:38.190Z,14.90
2018-09-06T12:54:05.780Z,14.83
2018-09-06T12:56:33.429Z,14.90
2018-09-06T12:59:01.003Z,14.63
2018-09-06T13:01:28.567Z,13.60
2018-09-06T13:03:56.122Z,12.57
2018-09-06T13:06:23.660Z,12.40
2018-09-06T13:08:51.314Z,13.70
2018-09-06T13:11:18.905Z,13.90
2018-09-06T13:13:46.545Z,14.60
2018-09-06T13:16:14.085Z,14.50
2018-09-06T13:18:41.699Z,15.00
2018-09-06T13:21:09.148Z,14.40
2018-09-06T13:23:36.665Z,14.10
2018-09-06T13:26:04.271Z,13.43
2018-09-06T13:28:32.088Z,14.50
2018-09-06T13:30:59.723Z,13.43
2018-09-06T13:33:27.251Z,14.40
2018-09-06T13:35:54.800Z,14.50
2018-09-06T13:38:22.336Z,15.37
2018-09-06T13:40:49.878Z,14.20
2018-09-06T13:43:17.442Z,15.87
2018-09-06T13:45:45.017Z,15.47
2018-09-06T13:48:12.553Z,15.97
2018-09-06T13:50:40.124Z,15.43
2018-09-06T13:53:07.649Z,14.60
2018-09-06T13:55:35.199Z,15.50
2018-09-06T13:58:02.817Z,15.33
2018-09-06T14:00:30.711Z,14.70
2018-09-06T14:02:58.354Z,15.57
2018-09-06T14:05:25.970Z,15.63
2018-09-06T14:07:53.566Z,15.20
2018-09-06T14:10:21.084Z,15.47
2018-09-06T14:12:48.624Z,15.17
2018-09-06T14:15:16.180Z,14.60
2018-09-06T14:17:43.832Z,14.23
2018-09-06T14:20:11.600Z,15.97
2018-09-06T14:22:39.246Z,15.10
2018-09-06T14:25:06.902Z,16.00
2018-09-06T14:27:34.673Z,14.87
2018-09-06T14:30:02.264Z,15.17
2018-09-06T14:32:30.177Z,15.37
2018-09-06T14:34:57.875Z,15.27
2018-09-06T14:37:25.744Z,13.43
2018-09-06T14:39:53.250Z,12.97
2018-09-06T14:42:20.997Z,14.23
2018-09-06T14:44:48.678Z,12.10
2018-09-06T14:47:16.278Z,12.63
2018-09-06T14:49:44.074Z,12.17
2018-09-06T14:52:11.713Z,13.50
2018-09-06T14:54:39.252Z,12.37
2018-09-06T14:57:06.851Z,13.27
2018-09-06T14:59:34.399Z,13.10
2018-09-06T15:02:02.050Z,12.03
2018-09-06T15:04:29.652Z,12.47
2018-09-06T15:06:57.259Z,13.40
2018-09-06T15:09:24.893Z,11.40
2018-09-06T15:11:52.620Z,11.47
2018-09-06T15:14:20.311Z,11.80
2018-09-06T15:16:47.970Z,11.57
2018-09-06T15:19:15.745Z,12.07
2018-09-06T15:21:43.388Z,12.03
2018-09-06T15:24:11.053Z,11.70
2018-09-06T15:26:38.779Z,12.60
2018-09-06T15:29:06.422Z,12.20
2018-09-06T15:31:33.936Z,12.23
2018-09-06T15:34:02.130Z,12.27
2018-09-06T15:36:29.756Z,11.37
2018-09-06T15:39:05.688Z,12.20
2018-09-06T15:41:33.442Z,12.00
2018-09-06T15:44:01.190Z,9.90
2018-09-06T15:46:28.830Z,10.00
2018-09-06T15:48:56.572Z,9.87
2018-09-06T15:51:24.536Z,9.67
2018-09-06T15:53:52.217Z,8.17
2018-09-06T15:56:19.766Z,8.37
2018-09-06T15:58:47.378Z,8.53
2018-09-06T16:01:14.934Z,8.97
2018-09-06T16:03:42.509Z,9.23
2018-09-06T16:06:10.106Z,8.53
2018-09-06T16:08:37.714Z,8.93
2018-09-06T16:11:05.345Z,9.37
2018-09-06T16:13:32.977Z,9.57
2018-09-06T16:16:00.570Z,9.63
2018-09-06T16:18:28.165Z,8.73
2018-09-06T16:20:55.818Z,9.00
2018-09-06T16:23:23.324Z,6.90
2018-09-06T16:25:50.890Z,6.97
2018-09-06T16:28:18.563Z,6.90
2018-09-06T16:30:46.240Z,7.00
2018-09-06T16:33:13.799Z,6.53
2018-09-06T16:35:41.342Z,7.07
2018-09-06T16:38:08.934Z,6.00
2018-09-06T16:40:36.485Z,6.43
2018-09-06T16:43:04.137Z,7.50
2018-09-06T16:45:31.923Z,5.30
2018-09-06T16:47:59.476Z,6.33
2018-09-06T16:50:27.047Z,6.30
2018-09-06T16:52:54.593Z,6.40
2018-09-06T16:55:22.198Z,5.80
2018-09-06T16:57:49.738Z,6.90
2018-09-06T17:00:17.367Z,7.10
2018-09-06T17:02:44.903Z,6.17
2018-09-06T17:05:12.553Z,7.07
2018-09-06T17:07:40.437Z,6.60
2018-09-06T17:10:08.066Z,6.67
2018-09-06T17:12:35.660Z,6.57
2018-09-06T17:15:03.329Z,7.60
2018-09-06T17:17:30.895Z,6.90
2018-09-06T17:19:58.478Z,6.90
2018-09-06T17:22:26.206Z,6.60
2018-09-06T17:24:53.897Z,8.00
2018-09-06T17:27:21.555Z,6.90
2018-09-06T17:29:49.096Z,6.97
2018-09-06T17:32:16.659Z,6.20
2018-09-06T17:34:44.233Z,7.17
2018-09-06T17:37:11.815Z,7.10
2018-09-06T17:39:39.452Z,6.83
2018-09-06T17:42:07.113Z,6.20
2018-09-06T17:44:34.616Z,6.97
2018-09-06T17:47:02.182Z,6.30
2018-09-06T17:49:29.742Z,7.70
2018-09-06T17:51:57.400Z,6.40
2018-09-06T17:54:25.012Z,8.20
2018-09-06T17:56:52.595Z,7.70
2018-09-06T17:59:20.174Z,8.00
2018-09-06T18:01:47.805Z,8.60
2018-09-06T18:04:15.410Z,7.43
2018-09-06T18:06:43.883Z,8.57
2018-09-06T18:09:12.534Z,8.10
2018-09-06T18:11:40.818Z,9.07
2018-09-06T18:14:08.545Z,8.57
2018-09-06T18:16:36.291Z,9.43
2018-09-06T18:19:04.027Z,7.87
2018-09-06T18:21:32.140Z,9.57
2018-09-06T18:23:59.868Z,8.67
2018-09-06T18:26:27.811Z,8.80
2018-09-06T18:28:55.575Z,8.27
2018-09-06T18:31:23.950Z,8.70
2018-09-06T18:33:51.687Z,9.73
2018-09-06T18:36:19.445Z,9.27
2018-09-06T18:38:48.543Z,8.80
2018-09-06T18:41:16.317Z,9.00
2018-09-06T18:43:44.068Z,8.80
2018-09-06T18:46:12.051Z,8.80
2018-09-06T18:48:39.966Z,9.47
2018-09-06T18:51:07.682Z,10.00
2018-09-06T18:53:35.383Z,9.47
2018-09-06T18:56:03.261Z,9.17
2018-09-06T18:58:30.917Z,9.00
2018-09-06T19:00:58.516Z,8.97
2018-09-06T19:03:26.189Z,9.17
2018-09-06T19:05:53.976Z,10.13
2018-09-06T19:08:21.571Z,9.93
2018-09-06T19:10:49.171Z,10.63
2018-09-06T19:13:16.785Z,11.37
2018-09-06T19:15:44.473Z,10.30
2018-09-06T19:18:13.166Z,10.83
2018-09-06T19:20:40.813Z,10.57
2018-09-06T19:23:08.577Z,10.57
2018-09-06T19:25:36.336Z,11.37
2018-09-06T19:28:04.022Z,11.13
2018-09-06T19:30:31.706Z,12.27
2018-09-06T19:32:59.343Z,11.67
2018-09-06T19:35:27.736Z,12.90
2018-09-06T19:37:55.450Z,14.23
2018-09-06T19:40:23.166Z,13.13
2018-09-06T19:42:50.939Z,12.57
2018-09-06T19:45:18.586Z,12.93
2018-09-06T19:47:46.551Z,12.70
2018-09-06T19:50:14.156Z,11.50
2018-09-06T19:52:42.076Z,12.23
2018-09-06T19:55:09.810Z,13.07
2018-09-06T19:57:37.514Z,11.43
2018-09-06T20:00:05.428Z,10.10
2018-09-06T20:02:33.429Z,11.57
2018-09-06T20:05:01.098Z,11.20
2018-09-06T20:07:28.716Z,11.43
2018-09-06T20:09:56.359Z,10.20
2018-09-06T20:12:24.093Z,11.10
2018-09-06T20:14:51.802Z,12.20
2018-09-06T20:17:19.396Z,10.27
2018-09-06T20:19:47.080Z,10.40
2018-09-06T20:22:15.389Z,9.83
2018-09-06T20:24:42.955Z,10.17
2018-09-06T20:27:10.607Z,9.20
2018-09-06T20:29:38.371Z,9.90
2018-09-06T20:32:06.019Z,9.43
2018-09-06T20:34:33.655Z,8.90
2018-09-06T20:37:01.357Z,9.37
2018-09-06T20:39:29.012Z,8.47
2018-09-06T20:41:56.695Z,9.80
2018-09-06T20:44:24.233Z,9.43
2018-09-06T20:46:51.828Z,10.33
2018-09-06T20:49:19.491Z,9.77
2018-09-06T20:51:47.155Z,10.70
2018-09-06T20:54:14.882Z,9.43
2018-09-06T20:56:42.482Z,9.67
2018-09-06T20:59:10.071Z,8.83
2018-09-06T21:01:37.669Z,9.03
2018-09-06T21:04:05.626Z,9.53
2018-09-06T21:06:33.212Z,9.33
2018-09-06T21:09:00.793Z,9.60
2018-09-06T21:11:28.407Z,10.17
2018-09-06T21:13:55.927Z,9.83
2018-09-06T21:16:23.520Z,11.27
2018-09-06T21:18:51.119Z,10.00
2018-09-06T21:21:18.728Z,10.30
2018-09-06T21:23:46.624Z,10.03
2018-09-06T21:26:14.168Z,9.73
2018-09-06T21:28:41.781Z,10.70
2018-09-06T21:31:09.387Z,11.40
2018-09-06T21:33:36.966Z,11.10
2018-09-06T21:36:04.512Z,11.07
2018-09-06T21:38:32.081Z,11.13
2018-09-06T21:40:59.605Z,9.97
2018-09-06T21:43:27.283Z,10.33
2018-09-06T21:45:54.881Z,11.07
2018-09-06T21:48:22.537Z,10.73
2018-09-06T21:50:50.089Z,10.53
2018-09-06T21:53:17.709Z,11.10
2018-09-06T21:55:45.364Z,10.60
2018-09-06T21:58:12.923Z,12.13
2018-09-06T22:00:40.501Z,12.30
2018-09-06T22:03:13.584Z,13.17
2018-09-06T22:05:41.088Z,12.37
2018-09-06T22:08:08.654Z,12.47
2018-09-06T22:10:36.213Z,14.47
2018-09-06T22:13:03.762Z,14.20
2018-09-06T22:15:31.348Z,14.73
2018-09-06T22:17:58.911Z,13.90
2018-09-06T22:20:26.530Z,13.30
2018-09-06T22:22:54.119Z,14.37
2018-09-06T22:25:21.656Z,14.70
2018-09-06T22:27:49.154Z,15.67
2018-09-06T22:30:16.821Z,14.93
2018-09-06T22:32:44.325Z,14.17
2018-09-06T22:35:11.887Z,15.77
2018-09-06T22:37:39.485Z,13.60
2018-09-06T22:40:07.382Z,14.77
2018-09-06T22:42:35.128Z,14.10
2018-09-06T22:45:02.720Z,14.63
2018-09-06T22:47:30.203Z,16.43
2018-09-06T22:49:57.746Z,17.23
2018-09-06T22:52:25.329Z,16.43
2018-09-06T22:54:52.888Z,15.90
2018-09-06T22:57:20.428Z,15.30
2018-09-06T22:59:47.936Z,16.27
2018-09-06T23:02:15.468Z,16.70
2018-09-06T23:04:42.997Z,15.10
2018-09-06T23:07:10.545Z,15.60
2018-09-06T23:09:38.095Z,15.17
2018-09-06T23:12:05.656Z,15.67
2018-09-06T23:14:33.160Z,15.77
2018-09-06T23:17:00.759Z,16.10
2018-09-06T23:19:28.276Z,15.17
2018-09-06T23:21:55.940Z,15.17
2018-09-06T23:24:23.467Z,15.63
2018-09-06T23:26:50.985Z,15.03
2018-09-06T23:29:18.462Z,16.60
2018-09-06T23:31:46.012Z,15.63
2018-09-06T23:34:13.566Z,13.10
2018-09-06T23:36:41.138Z,12.70
2018-09-06T23:39:08.651Z,11.50
2018-09-06T23:41:36.203Z,11.80
2018-09-06T23:44:03.747Z,11.37
2018-09-06T23:46:31.268Z,11.60
2018-09-06T23:48:58.781Z,11.40
2018-09-06T23:51:26.341Z,10.80
2018-09-06T23:53:53.822Z,10.67
2018-09-06T23:56:21.369Z,11.07
2018-09-06T23:58:48.913Z,10.73
